메인 페이지
METAR-TAF:

METAR-TAF

공항 :

포트오브스페인, 트리니다드 섬, 트리니다드 토바고

위도: 10-37N, 경도: 061-21W, 고도: 12m

현재 날씨관측

예보는 27분 전, 07:00시(UTC)에 발표되었습니다.
7kt
온도 26°C
습도 84%
기압 1013 hPa
시정 10km 이상
고도 1600ft 상공 구름 조금
고도 4000ft 상공 구름 보통

METAR: TTPP 210700Z 09007KT 9999 FEW016 SCT040 26/23 Q1013 NOSIG

시각: 03:27 (07:27 UTC)

예보

예보는 3 시간 27분 전, 04:00시(UTC)에 발표되었습니다.
예보 대상 시간: 21일 06시부터 22일 06시까지 (UTC)
5kt
시정 10km 이상
고도 1600ft 상공 구름 조금
고도 3800ft 상공 구름 보통
전환 중
21일 12시부터 21일 14시까지 (UTC)
15kt
고도 2500ft 상공 구름 보통
확률 40% :
일시적
21일 14시부터 21일 22시까지 (UTC)
시정: 8000m
고도 1800ft 상공 구름 보통
고도 3500ft 상공 구름 보통
소나기, 시계 내 소나기
전환 중
22일 00시부터 22일 02시까지 (UTC)
5kt
고도 1800ft 상공 구름 조금

TAF: TTPP 210400Z 2106/2206 10005KT 9999 FEW016 SCT038 BECMG 2112/2114 10015KT SCT025 PROB40 TEMPO 2114/2122 8000 SHRA VCSH SCT018 SCT035 BECMG 2200/2202 10005KT FEW018

4,000개 이상의 공항 관측 자료 및 예보 (METAR 및 TAF 보고).

지도상에서 검색 가능한 기상관측소가 노란 점과 빨간 점으로 표시되어 있습니다.

기상관측소 명을 보려면 표시 위로 마우스를 이동하세요.

날씨 관측과 예보를 보려면 클릭하세요.

지도 변경 : 확대하려면 엑스 표시가 있는 녹색 버튼, 축소하려면 빼기 표시가 있는 녹색 버튼, 다음 페이지의 지도를 보려면 녹색 화살표를 클릭하세요.


METAR-TAF: